Current Weather

Nairobi Jkia

Nairobi Jkia, Kenya (HKJK)

Report from: Sunday, November 27, 2022 11:00 AM EAT
Current time: Sunday, November 27, 2022 11:38 AM EAT

Nearby weather
Weather history
Weather forecast

Temperature22.0°C (71.6°F)
Dew point13.0°C (55.4°F)
Winds 9 kts (4.6 m/s, 10.4 mph) Northeast (50°)
Visibility6.2 mi. (10 km)
Clouds Ceiling: Broken clouds 2,500 ft. (762 m)
Altimeter30.12 in.Hg (1020 mB)
Relative humidity57 %
Density altitude798 ft. (243 m)
Remarks No significant changes expected in the next two hours
Flight conditions Marginal Visual Meteorological Conditions
Raw dataHKJK 270800Z 05009KT 9999 BKN025 22/13 Q1020 NOSIG
An error has occurred. This application may no longer respond until reloaded. Reload 🗙